Thermopolis, Wyoming
Current Conditions -  °F | °C
As of 8:15 AM on Monday 24 Nov 2014 (Local Time) from KTBX Reporting Station
Light Snow Light Snow  
Wind Chill:   Ceiling: 200
Heat Index: 19°   Visibility: 0.5mi
Dew Point: 19°   Wind: 30mph
Humidity: 100%   Direction: 320°NW
Pressure: 29.99"   Gusts: NA
Location:  43.65°N, 108.21°W
Report Text: KTBX 241515Z AUTO 32026KT 1/2SM -SN OVC002 M07/M07 A2999 RMK AO2
Loading
Personal Weather Stations






























Interactive Weather Map New forecast layout! Learn more

10-Day Weather Forecast

Advertisements
Track Severe Weather on mobile